Decoded Metar for PAOM (NOME in AK, USA) (IATA:OME) | Meteo·Mobile Aviation Weather
aviador You're here:

PAOM Decoded Metar

NOME in AK, USA
Report Time2019-01-18 13:53:00
UTC Time2019-01-18 14:30:32
Flight Rules vfr VFR
WindVRB at 03 kt
Visibility9999 m
Phenomena:N/A
Clouds:N/A
Expected CloudBase > 800 ft AGL from Temp-Dew spread
CeilingNone
Temp-16°C (ISA -31)
Dew Point-18°C (85% RH)
AAT-20.6°C
QNH1017 hPa
Density Alt-4,006 ft
Elevation36 ft
Report Wrong Elevation
Raw Report
PAOM 181353Z AUTO VRB03KT 10SM CLR M16/M18 A3004=

Extra information for PAOM:More info

Metar Taf Metar & Taf Last 4 Metars F.Rules Stats Wind Profile Meteogram Temp Stats Airport Information Weather charts Add Link Nearby VenuesMetar ALERT Operation Metar Decoded Social comments

AIRNAV info for PAOM